createdAt,value
2023-04-22T10:36:06.110Z,14588.00
2023-04-22T10:37:23.404Z,14924.00
2023-04-22T10:38:23.375Z,15028.00
2023-04-22T10:39:23.383Z,15108.00
2023-04-22T10:40:23.361Z,15008.00
2023-04-22T10:41:23.347Z,14752.00
2023-04-22T10:42:23.342Z,14400.00
2023-04-22T10:43:23.302Z,14136.00
2023-04-22T10:44:23.310Z,13808.00
2023-04-22T10:45:23.272Z,13396.00
2023-04-22T10:46:23.301Z,12940.00
2023-04-22T10:47:23.305Z,12568.00
2023-04-22T10:48:23.255Z,12292.00
2023-04-22T10:49:23.264Z,12124.00
2023-04-22T10:50:23.215Z,11980.00
2023-04-22T10:51:23.214Z,12120.00
2023-04-22T10:52:23.218Z,12240.00
2023-04-22T10:53:23.185Z,12324.00
2023-04-22T10:54:23.194Z,12500.00
2023-04-22T10:55:23.160Z,12560.00
2023-04-22T10:56:23.175Z,12556.00
2023-04-22T10:57:23.136Z,12568.00
2023-04-22T10:58:23.152Z,12544.00
2023-04-22T10:59:23.099Z,12712.00
2023-04-22T11:00:23.586Z,12928.00
2023-04-22T11:01:23.118Z,13288.00
2023-04-22T11:02:23.095Z,13688.00
2023-04-22T11:03:23.196Z,14068.00
2023-04-22T11:04:23.209Z,14204.00
2023-04-22T11:05:25.889Z,13628.00
2023-04-22T11:10:26.396Z,11416.00
2023-04-22T11:11:26.328Z,11260.00
2023-04-22T11:12:26.319Z,11608.00
2023-04-22T11:13:26.303Z,12052.00
2023-04-22T11:14:26.320Z,12868.00
2023-04-22T11:15:26.312Z,13244.00
2023-04-22T11:16:26.306Z,13484.00
2023-04-22T11:17:26.286Z,13364.00
2023-04-22T11:18:26.275Z,13208.00
2023-04-22T11:19:26.226Z,12784.00
2023-04-22T11:20:26.259Z,12376.00
2023-04-22T11:21:26.226Z,12116.00
2023-04-22T11:22:26.207Z,12052.00
2023-04-22T11:23:26.184Z,12012.00
2023-04-22T11:24:26.197Z,12144.00
2023-04-22T11:25:26.177Z,12288.00
2023-04-22T11:26:26.157Z,12684.00
2023-04-22T11:27:26.169Z,12524.00
2023-04-22T11:28:26.155Z,12732.00
2023-04-22T11:29:26.224Z,13324.00
2023-04-22T11:30:26.131Z,13412.00
2023-04-22T11:31:26.094Z,13404.00
2023-04-22T11:32:26.120Z,13372.00
2023-04-22T11:33:26.081Z,13768.00
2023-04-22T11:34:26.051Z,14208.00
2023-04-22T11:35:26.048Z,14280.00
2023-04-22T11:36:26.035Z,14316.00
2023-04-22T11:37:26.033Z,14440.00
2023-04-22T11:38:26.060Z,14636.00
2023-04-22T11:39:26.013Z,14896.00
2023-04-22T11:40:30.161Z,15056.00
2023-04-22T11:41:25.993Z,15196.00
2023-04-22T11:42:25.982Z,15308.00
2023-04-22T11:43:25.943Z,15504.00
2023-04-22T11:44:25.938Z,15744.00
2023-04-22T11:45:25.955Z,16064.00
2023-04-22T11:46:25.966Z,16384.00
2023-04-22T11:47:25.933Z,16768.00
2023-04-22T11:48:25.888Z,17056.00
2023-04-22T11:49:25.887Z,17312.00
2023-04-22T11:50:25.879Z,17536.00
2023-04-22T11:51:25.848Z,17664.00
2023-04-22T11:52:25.862Z,17760.00
2023-04-22T11:53:25.828Z,17824.00
2023-04-22T11:54:25.838Z,17760.00
2023-04-22T11:55:25.819Z,18112.00
2023-04-22T11:56:25.816Z,18368.00
2023-04-22T11:57:25.800Z,19136.00
2023-04-22T11:58:25.798Z,19936.00
2023-04-22T11:59:25.784Z,20608.00
2023-04-22T12:00:25.800Z,21120.00
2023-04-22T12:01:25.751Z,21024.00
2023-04-22T12:02:25.905Z,20672.00
2023-04-22T12:03:25.845Z,20032.00
2023-04-22T12:04:25.762Z,19584.00
2023-04-22T12:05:25.744Z,19936.00
2023-04-22T12:06:25.706Z,20576.00
2023-04-22T12:07:25.683Z,21088.00
2023-04-22T12:08:25.661Z,20992.00
2023-04-22T12:09:25.704Z,21312.00
2023-04-22T12:10:25.669Z,21376.00
2023-04-22T12:11:25.617Z,21248.00
2023-04-22T12:12:25.612Z,20768.00
2023-04-22T12:13:25.593Z,20416.00
2023-04-22T12:14:25.609Z,19968.00
2023-04-22T12:15:25.638Z,19328.00
2023-04-22T12:16:25.568Z,18880.00
2023-04-22T12:17:25.629Z,18496.00
2023-04-22T12:18:25.568Z,18208.00
2023-04-22T12:22:05.035Z,17888.00
2023-04-22T12:23:04.997Z,17984.00
2023-04-22T12:26:13.203Z,17920.00
2023-04-22T12:27:13.177Z,17952.00
2023-04-22T12:28:13.181Z,18048.00
2023-04-22T12:29:13.161Z,18080.00
2023-04-22T12:30:13.182Z,18464.00
2023-04-22T12:31:13.173Z,18912.00
2023-04-22T12:32:13.174Z,19392.00
2023-04-22T12:33:13.144Z,19680.00
2023-04-22T12:34:13.147Z,19840.00
2023-04-22T12:35:13.148Z,19872.00
2023-04-22T12:36:13.141Z,20064.00
2023-04-22T12:37:13.125Z,19936.00
2023-04-22T12:38:13.130Z,19360.00
2023-04-22T12:39:13.110Z,19136.00
2023-04-22T12:40:13.117Z,19008.00
2023-04-22T12:41:13.108Z,19328.00
2023-04-22T12:42:13.092Z,19552.00
2023-04-22T12:43:13.084Z,19328.00
2023-04-22T12:44:13.084Z,19520.00
2023-04-22T12:45:13.066Z,20128.00
2023-04-22T12:46:13.068Z,21056.00
2023-04-22T12:47:13.052Z,22144.00
2023-04-22T12:48:13.051Z,22560.00
2023-04-22T12:49:13.037Z,20928.00
2023-04-22T12:50:13.020Z,19392.00
2023-04-22T12:51:13.014Z,17664.00
2023-04-22T12:52:13.025Z,16704.00
2023-04-22T15:01:52.257Z,20704.00
2023-04-22T15:02:52.214Z,18656.00
